createdAt,value
2023-03-18T00:00:01.768Z,15.40
2023-03-18T00:02:28.285Z,15.37
2023-03-18T00:04:54.684Z,15.11
2023-03-18T00:07:21.256Z,15.22
2023-03-18T00:09:47.762Z,15.21
2023-03-18T00:12:14.202Z,15.28
2023-03-18T00:14:40.731Z,15.32
2023-03-18T00:17:08.052Z,15.20
2023-03-18T00:19:34.490Z,15.24
2023-03-18T00:22:00.988Z,15.25
2023-03-18T00:24:28.298Z,15.24
2023-03-18T00:26:54.987Z,15.25
2023-03-18T00:29:21.502Z,15.22
2023-03-18T00:31:47.935Z,15.07
2023-03-18T00:34:14.767Z,15.22
2023-03-18T00:36:41.721Z,15.25
2023-03-18T00:39:09.282Z,15.29
2023-03-18T00:41:37.977Z,15.31
2023-03-18T00:44:05.154Z,15.26
2023-03-18T00:46:34.725Z,15.40
2023-03-18T00:49:05.061Z,15.42
2023-03-18T00:51:34.276Z,15.38
2023-03-18T00:54:02.627Z,15.54
2023-03-18T00:56:31.942Z,15.52
2023-03-18T00:58:58.533Z,15.63
2023-03-18T01:01:25.783Z,15.55
2023-03-18T01:03:52.512Z,15.69
2023-03-18T01:06:28.388Z,15.69
2023-03-18T01:08:56.096Z,15.83
2023-03-18T01:11:23.414Z,15.89
2023-03-18T01:13:50.131Z,15.98
2023-03-18T01:16:16.971Z,15.98
2023-03-18T01:18:43.563Z,15.95
2023-03-18T01:21:10.611Z,15.60
2023-03-18T01:23:38.082Z,15.95
2023-03-18T01:26:06.026Z,16.06
2023-03-18T01:28:33.097Z,15.88
2023-03-18T01:30:59.869Z,15.97
2023-03-18T01:33:26.291Z,16.20
2023-03-18T01:36:00.385Z,15.83
2023-03-18T01:38:31.335Z,16.13
2023-03-18T01:40:59.656Z,16.06
2023-03-18T01:43:30.501Z,16.06
2023-03-18T01:45:59.893Z,16.13
2023-03-18T01:48:30.815Z,16.13
2023-03-18T01:51:02.852Z,16.16
2023-03-18T01:53:36.031Z,16.22
2023-03-18T01:56:03.937Z,16.16
2023-03-18T01:58:39.611Z,16.27
2023-03-18T02:01:12.988Z,16.17
2023-03-18T02:03:41.901Z,16.19
2023-03-18T02:06:10.048Z,16.21
2023-03-18T02:08:39.449Z,16.16
2023-03-18T02:11:08.055Z,16.24
2023-03-18T02:13:43.126Z,16.23
2023-03-18T02:16:24.190Z,16.27
2023-03-18T02:18:55.288Z,16.27
2023-03-18T02:22:03.666Z,16.17
2023-03-18T02:25:06.774Z,16.20
2023-03-18T02:27:37.601Z,16.11
2023-03-18T02:30:18.832Z,16.19
2023-03-18T02:32:48.307Z,16.23
2023-03-18T02:35:15.472Z,16.21
2023-03-18T02:37:41.996Z,16.17
2023-03-18T02:40:26.777Z,16.16
2023-03-18T02:42:53.503Z,16.14
2023-03-18T02:45:39.520Z,16.14
2023-03-18T02:48:08.335Z,16.22
2023-03-18T02:50:34.783Z,16.16
2023-03-18T02:53:04.114Z,16.16
2023-03-18T02:55:30.901Z,16.12
2023-03-18T02:57:57.386Z,16.04
2023-03-18T03:00:23.986Z,15.90
2023-03-18T03:02:50.790Z,15.82
2023-03-18T03:05:17.473Z,16.03
2023-03-18T03:07:43.910Z,16.07
2023-03-18T03:10:11.312Z,16.10
2023-03-18T03:12:37.888Z,16.04
2023-03-18T03:15:07.883Z,16.07
2023-03-18T03:17:35.646Z,15.96
2023-03-18T03:20:03.483Z,16.03
2023-03-18T03:22:30.299Z,15.95
2023-03-18T03:24:56.715Z,15.99
2023-03-18T03:27:23.139Z,15.98
2023-03-18T03:29:50.081Z,15.94
2023-03-18T03:32:17.113Z,15.92
2023-03-18T03:34:43.741Z,15.96
2023-03-18T03:37:10.395Z,15.99
2023-03-18T03:39:36.833Z,15.98
2023-03-18T03:42:03.382Z,15.90
2023-03-18T03:44:30.243Z,15.90
2023-03-18T03:46:56.676Z,15.98
2023-03-18T03:49:23.598Z,16.02
2023-03-18T03:51:50.053Z,15.89
2023-03-18T03:54:16.711Z,15.98
2023-03-18T03:56:43.180Z,15.98
2023-03-18T03:59:10.236Z,15.98
2023-03-18T04:01:36.704Z,15.88
2023-03-18T04:04:03.986Z,15.90
2023-03-18T04:06:31.026Z,15.90
2023-03-18T04:08:57.478Z,15.86
2023-03-18T04:11:24.236Z,15.63
2023-03-18T04:13:50.726Z,15.36
2023-03-18T04:16:17.266Z,15.55
2023-03-18T04:18:43.773Z,15.78
2023-03-18T04:21:10.381Z,15.86
2023-03-18T04:23:37.375Z,15.84
2023-03-18T04:26:05.386Z,15.80
2023-03-18T04:28:31.851Z,15.76
2023-03-18T04:30:58.506Z,15.57
2023-03-18T04:33:25.511Z,15.66
2023-03-18T04:35:52.607Z,15.43
2023-03-18T04:38:19.365Z,15.29
2023-03-18T04:40:47.631Z,15.48
2023-03-18T04:43:14.143Z,15.54
2023-03-18T04:45:40.574Z,15.58
2023-03-18T04:48:07.151Z,15.62
2023-03-18T04:50:34.350Z,15.55
2023-03-18T04:53:00.759Z,15.32
2023-03-18T04:55:27.320Z,15.53
2023-03-18T04:57:54.532Z,15.48
2023-03-18T05:00:22.205Z,15.34
2023-03-18T05:02:48.922Z,15.35
2023-03-18T05:05:15.473Z,15.50
2023-03-18T05:07:42.395Z,15.44
2023-03-18T05:10:09.748Z,15.40
2023-03-18T05:12:37.055Z,15.30
2023-03-18T05:15:05.556Z,15.38
2023-03-18T05:17:31.980Z,15.38
2023-03-18T05:19:58.431Z,15.26
2023-03-18T05:22:25.230Z,15.11
2023-03-18T05:24:51.866Z,15.07
2023-03-18T05:27:19.902Z,15.09
2023-03-18T05:29:46.560Z,15.17
2023-03-18T05:32:14.679Z,15.07
2023-03-18T05:34:41.697Z,15.06
2023-03-18T05:37:10.470Z,15.08
2023-03-18T05:39:37.364Z,15.01
2023-03-18T05:42:04.755Z,15.00
2023-03-18T05:44:32.510Z,14.78
2023-03-18T05:46:59.018Z,14.95
2023-03-18T05:49:27.168Z,15.04
2023-03-18T05:51:55.113Z,14.98
2023-03-18T05:54:22.029Z,14.86
2023-03-18T05:56:52.335Z,14.92
2023-03-18T05:59:19.714Z,14.99
2023-03-18T06:01:46.747Z,14.96
2023-03-18T06:04:13.160Z,14.99
2023-03-18T06:06:40.733Z,14.93
2023-03-18T06:09:12.253Z,15.00
2023-03-18T06:11:40.210Z,15.06
2023-03-18T06:14:08.040Z,15.08
2023-03-18T06:16:44.186Z,15.03
2023-03-18T06:19:11.929Z,15.09
2023-03-18T06:21:39.362Z,15.03
2023-03-18T06:24:07.193Z,15.13
2023-03-18T06:26:34.110Z,15.16
2023-03-18T06:29:00.529Z,15.08
2023-03-18T06:31:27.292Z,15.08
2023-03-18T06:33:53.750Z,15.18
2023-03-18T06:36:20.807Z,15.26
2023-03-18T06:38:47.397Z,15.24
2023-03-18T06:41:14.664Z,15.37
2023-03-18T06:43:41.061Z,15.47
2023-03-18T06:46:08.210Z,15.39
2023-03-18T06:48:35.215Z,15.53
2023-03-18T06:51:01.616Z,15.57
2023-03-18T06:53:29.427Z,15.83
2023-03-18T06:55:56.714Z,15.85
2023-03-18T06:58:24.629Z,15.98
2023-03-18T07:00:51.472Z,16.16
2023-03-18T07:03:17.886Z,16.29
2023-03-18T07:05:44.298Z,16.34
2023-03-18T07:08:10.880Z,16.65
2023-03-18T07:10:37.337Z,16.80
2023-03-18T07:13:04.634Z,16.48
2023-03-18T07:16:30.601Z,16.63
2023-03-18T07:18:58.990Z,16.79
2023-03-18T07:21:26.163Z,16.63
2023-03-18T07:23:58.190Z,16.57
2023-03-18T07:26:25.232Z,16.60
2023-03-18T07:28:52.046Z,16.57
2023-03-18T07:31:18.746Z,16.94
2023-03-18T07:33:45.233Z,16.73
2023-03-18T07:36:15.275Z,16.88
2023-03-18T07:38:42.112Z,17.04
2023-03-18T07:41:08.547Z,17.00
2023-03-18T07:43:35.189Z,17.14
2023-03-18T07:46:01.595Z,16.88
2023-03-18T07:48:28.045Z,16.68
2023-03-18T07:51:27.278Z,16.17
2023-03-18T07:53:56.639Z,16.58
2023-03-18T07:56:27.172Z,16.67
2023-03-18T07:58:53.604Z,17.10
2023-03-18T08:01:20.015Z,17.62
2023-03-18T08:03:47.550Z,17.39
2023-03-18T08:06:19.603Z,17.77
2023-03-18T08:08:46.785Z,18.15
2023-03-18T08:11:14.693Z,19.04
2023-03-18T08:14:11.011Z,18.70
2023-03-18T08:16:37.603Z,18.77
2023-03-18T08:19:04.198Z,18.64
2023-03-18T08:21:30.764Z,18.83
2023-03-18T08:23:57.274Z,19.12
2023-03-18T08:26:24.206Z,19.19
2023-03-18T08:28:50.619Z,18.42
2023-03-18T08:31:17.349Z,18.24
2023-03-18T08:33:43.796Z,17.89
2023-03-18T08:36:10.246Z,17.18
2023-03-18T08:38:36.670Z,18.30
2023-03-18T08:41:03.913Z,17.82
2023-03-18T08:43:30.392Z,17.00
2023-03-18T08:45:57.577Z,17.54
2023-03-18T08:48:25.655Z,17.59
2023-03-18T08:50:52.598Z,17.54
2023-03-18T08:53:19.508Z,17.65
2023-03-18T08:55:46.759Z,17.54
2023-03-18T08:58:13.481Z,17.94
2023-03-18T09:00:42.764Z,17.87
2023-03-18T09:03:10.031Z,18.23
2023-03-18T09:05:37.647Z,18.85
2023-03-18T09:08:05.092Z,18.55
2023-03-18T09:10:31.548Z,17.87
2023-03-18T09:12:58.020Z,18.78
2023-03-18T09:15:24.612Z,19.20
2023-03-18T09:18:08.120Z,18.49
2023-03-18T09:20:37.715Z,18.88
2023-03-18T09:23:04.902Z,19.25
2023-03-18T09:25:31.764Z,19.65
2023-03-18T09:28:36.085Z,19.45
2023-03-18T09:31:32.662Z,20.43
2023-03-18T09:34:09.694Z,20.19
2023-03-18T09:37:13.804Z,20.55
2023-03-18T09:39:43.319Z,20.12
2023-03-18T09:42:32.194Z,19.58
2023-03-18T09:55:15.348Z,18.56
2023-03-18T09:57:51.504Z,18.63
2023-03-18T10:00:32.360Z,18.83
2023-03-18T10:03:06.380Z,19.37
2023-03-18T10:06:07.870Z,18.50
2023-03-18T10:08:47.033Z,18.63
2023-03-18T10:11:41.437Z,18.78
2023-03-18T10:14:26.580Z,18.66
2023-03-18T10:17:09.316Z,18.13
2023-03-18T10:19:37.627Z,18.76
2023-03-18T10:22:28.922Z,19.08
2023-03-18T10:25:03.516Z,19.54
2023-03-18T10:27:52.973Z,18.86
2023-03-18T10:30:19.419Z,19.83
2023-03-18T10:32:56.863Z,19.30
2023-03-18T10:35:34.430Z,20.17
2023-03-18T10:38:17.869Z,19.18
2023-03-18T10:40:46.904Z,18.98
2023-03-18T10:43:17.743Z,18.68
2023-03-18T10:45:46.782Z,19.08
2023-03-18T10:48:25.489Z,19.20
2023-03-18T10:51:31.461Z,18.98
2023-03-18T10:54:23.015Z,19.20
2023-03-18T10:56:49.719Z,19.05
2023-03-18T10:59:22.780Z,18.95
2023-03-18T11:01:57.778Z,19.18
2023-03-18T11:04:24.478Z,18.90
2023-03-18T11:07:03.598Z,20.11
2023-03-18T11:09:36.374Z,19.42
2023-03-18T11:12:05.787Z,19.80
2023-03-18T11:14:33.661Z,19.01
2023-03-18T11:17:22.110Z,19.34
2023-03-18T11:19:59.748Z,19.82
2023-03-18T11:22:27.708Z,19.82
2023-03-18T11:25:06.108Z,20.17
2023-03-18T11:27:38.381Z,19.89
2023-03-18T11:30:34.753Z,19.16
2023-03-18T11:33:15.815Z,19.74
2023-03-18T11:35:50.942Z,19.35
2023-03-18T11:38:35.352Z,19.92
2023-03-18T11:41:09.120Z,19.67
2023-03-18T11:43:37.724Z,20.20
2023-03-18T11:46:09.429Z,19.70
2023-03-18T11:48:41.958Z,20.23
2023-03-18T11:51:27.343Z,19.83
2023-03-18T11:54:18.370Z,19.68
2023-03-18T11:57:02.868Z,19.12
2023-03-18T11:59:53.317Z,20.18
2023-03-18T12:02:28.846Z,20.67
2023-03-18T12:05:10.875Z,19.71
2023-03-18T12:07:55.719Z,19.75
2023-03-18T12:10:39.019Z,19.84
2023-03-18T12:13:35.706Z,19.39
2023-03-18T12:16:28.766Z,19.95
2023-03-18T12:19:19.909Z,19.14
2023-03-18T12:22:15.325Z,19.58
2023-03-18T12:24:52.450Z,19.08
2023-03-18T12:27:32.410Z,19.82
2023-03-18T12:30:26.087Z,19.97
2023-03-18T12:33:14.500Z,19.64
2023-03-18T12:36:08.081Z,19.99
2023-03-18T12:38:51.987Z,20.76
2023-03-18T12:41:38.415Z,19.90
2023-03-18T12:44:13.599Z,20.72
2023-03-18T12:46:48.399Z,20.74
2023-03-18T12:49:36.413Z,20.12
2023-03-18T12:52:02.826Z,20.89
2023-03-18T12:54:33.717Z,21.02
2023-03-18T12:57:06.231Z,20.82
2023-03-18T12:59:41.994Z,21.02
2023-03-18T13:02:33.081Z,20.36
2023-03-18T13:05:03.418Z,20.31
2023-03-18T13:07:40.630Z,20.23
2023-03-18T13:10:24.295Z,20.23
2023-03-18T13:13:03.643Z,20.48
2023-03-18T13:15:42.814Z,21.00
2023-03-18T13:18:18.962Z,21.08
2023-03-18T13:20:47.685Z,20.46
2023-03-18T13:23:24.697Z,19.98
2023-03-18T13:26:15.466Z,20.92
2023-03-18T13:29:08.576Z,20.31
2023-03-18T13:32:19.732Z,19.72
2023-03-18T13:35:04.641Z,20.60
2023-03-18T13:37:34.025Z,20.92
2023-03-18T13:40:19.145Z,20.52
2023-03-18T13:42:49.237Z,20.69
2023-03-18T13:45:22.376Z,19.81
2023-03-18T13:47:56.521Z,20.25
2023-03-18T13:50:30.701Z,20.30
2023-03-18T13:52:59.554Z,19.75
2023-03-18T13:55:53.459Z,20.26
2023-03-18T13:58:29.892Z,19.80
2023-03-18T14:00:56.634Z,19.92
2023-03-18T14:03:31.463Z,19.85
2023-03-18T14:06:03.910Z,20.73
2023-03-18T14:08:43.892Z,18.97
2023-03-18T14:11:20.178Z,20.27
2023-03-18T14:13:53.522Z,20.61
2023-03-18T14:16:28.127Z,19.77
2023-03-18T14:19:22.008Z,20.42
2023-03-18T14:21:53.527Z,20.37
2023-03-18T14:24:21.628Z,20.65
2023-03-18T14:27:17.172Z,20.87
2023-03-18T14:29:47.320Z,19.69
2023-03-18T14:32:22.576Z,20.85
2023-03-18T14:35:18.212Z,19.55
2023-03-18T14:38:25.038Z,20.57
2023-03-18T14:40:56.208Z,20.03
2023-03-18T14:43:40.292Z,20.41
2023-03-18T14:46:18.116Z,20.90
2023-03-18T14:48:45.092Z,20.83
2023-03-18T14:51:17.588Z,21.05
2023-03-18T14:53:51.260Z,19.77
2023-03-18T14:56:22.804Z,20.08
2023-03-18T14:58:53.398Z,19.92
2023-03-18T15:01:26.441Z,20.06
2023-03-18T15:03:55.257Z,19.57
2023-03-18T15:06:25.443Z,19.02
2023-03-18T15:09:03.161Z,19.91
2023-03-18T15:11:30.196Z,19.28
2023-03-18T15:14:00.056Z,19.46
2023-03-18T15:16:30.600Z,19.56
2023-03-18T15:18:57.120Z,19.96
2023-03-18T15:21:28.677Z,20.75
2023-03-18T15:24:00.100Z,20.41
2023-03-18T15:27:04.678Z,20.51
2023-03-18T15:29:36.357Z,20.08
2023-03-18T15:32:10.486Z,19.87
2023-03-18T15:34:38.258Z,20.29
2023-03-18T15:37:22.302Z,20.71
2023-03-18T15:39:49.596Z,20.86
2023-03-18T15:42:19.180Z,19.92
2023-03-18T15:44:58.918Z,20.10
2023-03-18T15:47:29.584Z,20.45
2023-03-18T15:50:02.147Z,20.47
2023-03-18T15:52:36.457Z,20.94
2023-03-18T15:55:04.890Z,20.97
2023-03-18T15:57:40.154Z,19.96
2023-03-18T16:00:09.187Z,19.92
2023-03-18T16:02:36.401Z,20.29
2023-03-18T16:05:07.802Z,20.11
2023-03-18T16:07:34.524Z,20.46
2023-03-18T16:10:01.568Z,20.69
2023-03-18T16:12:31.626Z,20.18
2023-03-18T16:14:58.075Z,19.85
2023-03-18T16:17:24.651Z,20.36
2023-03-18T16:19:55.138Z,19.98
2023-03-18T16:22:22.037Z,20.44
2023-03-18T16:24:48.595Z,20.38
2023-03-18T16:27:39.247Z,20.46
2023-03-18T16:30:07.886Z,20.44
2023-03-18T16:32:35.555Z,20.52
2023-03-18T16:35:02.764Z,20.58
2023-03-18T16:37:29.243Z,20.02
2023-03-18T16:39:56.032Z,20.30
2023-03-18T16:42:23.958Z,19.83
2023-03-18T16:44:51.128Z,20.28
2023-03-18T16:47:27.133Z,20.50
2023-03-18T16:49:54.288Z,20.49
2023-03-18T16:52:20.723Z,20.43
2023-03-18T16:54:47.208Z,20.38
2023-03-18T16:57:20.032Z,20.47
2023-03-18T16:59:50.804Z,20.50
2023-03-18T17:02:38.131Z,20.48
2023-03-18T17:05:05.510Z,20.45
2023-03-18T17:07:33.900Z,20.36
2023-03-18T17:10:00.458Z,20.26
2023-03-18T17:12:27.056Z,20.25
2023-03-18T17:14:57.992Z,20.29
2023-03-18T17:17:35.836Z,20.16
2023-03-18T17:20:05.078Z,20.16
2023-03-18T17:22:32.979Z,19.97
2023-03-18T17:25:01.365Z,19.92
2023-03-18T17:27:34.015Z,19.91
2023-03-18T17:30:00.848Z,19.83
2023-03-18T17:32:27.350Z,19.67
2023-03-18T17:34:54.253Z,19.42
2023-03-18T17:37:21.415Z,19.41
2023-03-18T17:39:47.857Z,19.59
2023-03-18T17:42:23.104Z,19.51
2023-03-18T17:44:49.631Z,19.80
2023-03-18T17:47:16.053Z,19.87
2023-03-18T17:49:42.448Z,19.84
2023-03-18T17:52:11.151Z,19.83
2023-03-18T17:54:37.540Z,20.02
2023-03-18T17:57:04.081Z,19.97
2023-03-18T17:59:30.620Z,19.69
2023-03-18T18:01:57.133Z,19.71
2023-03-18T18:04:24.884Z,19.94
2023-03-18T18:06:51.529Z,20.00
2023-03-18T18:09:19.285Z,19.94
2023-03-18T18:11:50.648Z,20.04
2023-03-18T18:14:26.789Z,19.97
2023-03-18T18:16:56.042Z,19.87
2023-03-18T18:19:22.837Z,19.73
2023-03-18T18:21:50.395Z,19.43
2023-03-18T18:24:23.038Z,19.21
2023-03-18T18:26:49.944Z,19.44
2023-03-18T18:29:22.165Z,19.09
2023-03-18T18:31:49.386Z,19.12
2023-03-18T18:34:16.305Z,19.26
2023-03-18T18:36:43.052Z,18.95
2023-03-18T18:39:09.520Z,19.13
2023-03-18T18:41:37.397Z,19.10
2023-03-18T18:44:03.892Z,19.06
2023-03-18T18:46:30.908Z,19.12
2023-03-18T18:48:57.380Z,18.93
2023-03-18T18:51:25.244Z,18.75
2023-03-18T18:53:53.747Z,18.59
2023-03-18T18:56:39.016Z,18.46
2023-03-18T18:59:23.214Z,18.08
2023-03-18T19:01:50.829Z,17.95
2023-03-18T19:04:17.408Z,17.65
2023-03-18T19:06:45.766Z,17.81
2023-03-18T19:09:23.881Z,17.73
2023-03-18T19:11:51.614Z,17.69
2023-03-18T19:14:21.816Z,17.56
2023-03-18T19:16:48.930Z,17.54
2023-03-18T19:19:20.626Z,17.44
2023-03-18T19:21:47.176Z,17.22
2023-03-18T19:24:26.613Z,17.26
2023-03-18T19:27:00.053Z,17.10
2023-03-18T19:29:27.232Z,17.00
2023-03-18T19:31:54.527Z,16.94
2023-03-18T19:34:22.250Z,16.97
2023-03-18T19:36:52.816Z,16.88
2023-03-18T19:39:21.883Z,16.80
2023-03-18T19:41:49.070Z,16.60
2023-03-18T19:44:22.643Z,16.65
2023-03-18T19:46:51.620Z,16.68
2023-03-18T19:49:35.159Z,16.71
2023-03-18T19:52:02.776Z,16.68
2023-03-18T19:54:32.015Z,16.56
2023-03-18T19:57:03.854Z,16.55
2023-03-18T19:59:38.309Z,16.54
2023-03-18T20:02:17.511Z,16.65
2023-03-18T20:04:44.088Z,16.83
2023-03-18T20:07:10.660Z,16.57
2023-03-18T20:09:37.250Z,16.79
2023-03-18T20:12:05.840Z,16.79
2023-03-18T20:14:38.004Z,16.84
2023-03-18T20:17:23.273Z,16.46
2023-03-18T20:19:50.507Z,16.69
2023-03-18T20:22:29.967Z,16.71
2023-03-18T20:24:56.656Z,16.81
2023-03-18T20:27:23.185Z,16.69
2023-03-18T20:29:49.690Z,16.83
2023-03-18T20:32:16.381Z,16.57
2023-03-18T20:34:43.896Z,16.76
2023-03-18T20:37:24.157Z,16.72
2023-03-18T20:39:52.131Z,16.84
2023-03-18T20:42:19.081Z,16.92
2023-03-18T20:44:46.204Z,16.78
2023-03-18T20:47:13.501Z,16.71
2023-03-18T20:49:44.001Z,16.67
2023-03-18T20:52:22.747Z,16.83
2023-03-18T20:54:49.392Z,16.76
2023-03-18T20:57:16.125Z,16.66
2023-03-18T20:59:42.517Z,16.51
2023-03-18T21:02:28.266Z,16.63
2023-03-18T21:04:56.573Z,16.83
2023-03-18T21:07:23.238Z,16.77
2023-03-18T21:09:49.737Z,16.44
2023-03-18T21:12:17.704Z,16.78
2023-03-18T21:14:44.494Z,16.60
2023-03-18T21:17:21.679Z,16.78
2023-03-18T21:19:49.744Z,16.92
2023-03-18T21:22:21.739Z,16.90
2023-03-18T21:24:49.380Z,16.84
2023-03-18T21:27:22.448Z,16.42
2023-03-18T21:29:51.096Z,16.07
2023-03-18T21:32:27.126Z,16.52
2023-03-18T21:34:54.583Z,16.41
2023-03-18T21:37:23.237Z,16.58
2023-03-18T21:39:50.374Z,16.56
2023-03-18T21:42:27.240Z,16.35
2023-03-18T21:44:54.905Z,16.40
2023-03-18T21:47:23.505Z,16.62
2023-03-18T21:49:50.532Z,16.54
2023-03-18T21:52:19.350Z,16.66
2023-03-18T21:54:46.852Z,16.61
2023-03-18T21:57:21.992Z,16.47
2023-03-18T21:59:49.874Z,15.60
2023-03-18T22:02:24.927Z,15.52
2023-03-18T22:04:51.617Z,15.10
2023-03-18T22:07:18.578Z,15.20
2023-03-18T22:09:45.837Z,15.96
2023-03-18T22:12:37.967Z,15.55
2023-03-18T22:15:39.360Z,15.37
2023-03-18T22:18:07.452Z,15.07
2023-03-18T22:20:36.406Z,15.14
2023-03-18T22:23:12.740Z,15.47
2023-03-18T22:25:39.903Z,15.87
2023-03-18T22:28:06.332Z,15.96
2023-03-18T22:30:34.400Z,16.01
2023-03-18T22:33:03.493Z,16.21
2023-03-18T22:35:30.728Z,16.06
2023-03-18T22:37:58.006Z,15.81
2023-03-18T22:40:29.818Z,16.03
2023-03-18T22:42:59.638Z,15.73
2023-03-18T22:45:29.031Z,15.63
2023-03-18T22:47:58.705Z,15.13
2023-03-18T22:50:27.950Z,15.48
2023-03-18T22:53:08.703Z,15.70
2023-03-18T22:55:38.709Z,15.79
2023-03-18T22:58:05.885Z,15.49
2023-03-18T23:00:39.172Z,15.72
2023-03-18T23:03:20.408Z,15.85
2023-03-18T23:05:48.664Z,15.27
2023-03-18T23:08:15.966Z,15.73
2023-03-18T23:10:45.093Z,15.49
2023-03-18T23:13:25.512Z,15.03
2023-03-18T23:15:52.065Z,15.46
2023-03-18T23:18:19.588Z,15.15
2023-03-18T23:20:48.695Z,15.28
2023-03-18T23:23:16.091Z,15.07
2023-03-18T23:25:44.419Z,15.15
2023-03-18T23:28:11.220Z,14.29
2023-03-18T23:30:39.729Z,14.93
2023-03-18T23:33:07.113Z,15.06
2023-03-18T23:35:33.848Z,15.16
2023-03-18T23:38:00.565Z,15.41
2023-03-18T23:40:27.425Z,15.43
2023-03-18T23:42:53.854Z,15.47
2023-03-18T23:45:20.573Z,14.95
2023-03-18T23:47:47.205Z,14.58
2023-03-18T23:50:13.648Z,14.66
2023-03-18T23:52:40.070Z,14.54
2023-03-18T23:55:18.469Z,14.23
2023-03-18T23:57:53.943Z,13.87
